Time;durP1;ratioP1;P1;durP2;ratioP2;P2;SDS_P1;SDS_P2;PMS_P1;PMS_P2;Temp;Humidity;BMP_temperature;BMP_pressure;BME280_temperature;BME280_humidity;BME280_pressure;Samples;Min_cycle;Max_cycle;Signal;HPM_P1;HPM_P2
2022/12/05 00:02:15;;;;;;;77.78;35.72;;;;;;;;;;4989432;28;20104;-71
2022/12/05 00:04:42;;;;;;;83.32;37.80;;;;;;;;;;5003931;28;20065;-71
2022/12/05 00:07:08;;;;;;;77.18;36.47;;;;;;;;;;5005615;28;20030;-70
2022/12/05 00:09:35;;;;;;;75.97;33.95;;;;;;;;;;4993769;28;20076;-70
2022/12/05 00:12:01;;;;;;;77.20;35.28;;;;;;;;;;5006198;28;20037;-70
2022/12/05 00:14:27;;;;;;;75.13;34.70;;;;;;;;;;5003619;28;20121;-70
2022/12/05 00:16:53;;;;;;;76.35;34.63;;;;;;;;;;4989932;28;20053;-70
2022/12/05 00:19:19;;;;;;;70.63;34.15;;;;;;;;;;5005009;28;21783;-70
2022/12/05 00:21:45;;;;;;;68.90;33.13;;;;;;;;;;5005123;28;20041;-70
2022/12/05 00:24:13;;;;;;;71.07;32.50;;;;;;;;;;5005907;28;20033;-70
2022/12/05 00:26:39;;;;;;;72.18;34.58;;;;;;;;;;5003906;28;20022;-70
2022/12/05 00:29:05;;;;;;;75.15;34.08;;;;;;;;;;4992343;28;20026;-70
2022/12/05 00:31:32;;;;;;;70.13;33.90;;;;;;;;;;5004180;28;20029;-70
2022/12/05 00:34:02;;;;;;;73.90;33.25;;;;;;;;;;4998314;28;20528;-71
2022/12/05 00:36:30;;;;;;;66.53;31.98;;;;;;;;;;5002456;28;20049;-71
2022/12/05 00:38:58;;;;;;;70.90;32.30;;;;;;;;;;5001421;28;20104;-70
2022/12/05 00:41:25;;;;;;;76.22;34.45;;;;;;;;;;5004927;28;20029;-71
2022/12/05 00:43:52;;;;;;;71.20;33.80;;;;;;;;;;5004544;28;20399;-70
2022/12/05 00:46:19;;;;;;;72.53;33.10;;;;;;;;;;5004366;28;20715;-71
2022/12/05 00:48:45;;;;;;;69.07;33.55;;;;;;;;;;5006613;28;20038;-70
2022/12/05 00:51:11;;;;;;;71.60;32.17;;;;;;;;;;5003236;28;20030;-70
2022/12/05 00:53:38;;;;;;;69.63;33.92;;;;;;;;;;4990186;28;20096;-70
2022/12/05 00:56:06;;;;;;;77.53;34.35;;;;;;;;;;5004893;28;20045;-71
2022/12/05 00:58:33;;;;;;;71.07;33.85;;;;;;;;;;5004058;28;20116;-71
2022/12/05 01:01:14;;;;;;;76.05;33.88;;;;;;;;;;5003390;28;20040;-71
2022/12/05 01:03:40;;;;;;;78.60;35.85;;;;;;;;;;5002653;28;21262;-71
2022/12/05 01:06:07;;;;;;;75.93;36.03;;;;;;;;;;5003622;28;20038;-71
2022/12/05 01:08:33;;;;;;;80.93;34.50;;;;;;;;;;5004304;28;20065;-70
2022/12/05 01:11:00;;;;;;;74.63;35.25;;;;;;;;;;5003420;28;20390;-70
2022/12/05 01:13:26;;;;;;;73.63;33.50;;;;;;;;;;5004101;28;20418;-70
2022/12/05 01:15:53;;;;;;;78.22;35.50;;;;;;;;;;5003519;28;20048;-70
2022/12/05 01:18:19;;;;;;;88.18;37.40;;;;;;;;;;4987487;28;20038;-71
2022/12/05 01:20:46;;;;;;;80.78;36.28;;;;;;;;;;4987884;28;20056;-71
2022/12/05 01:23:12;;;;;;;86.05;36.85;;;;;;;;;;5002294;28;20033;-70
2022/12/05 01:25:42;;;;;;;83.15;36.63;;;;;;;;;;5003645;28;20037;-70
2022/12/05 01:28:09;;;;;;;85.00;37.97;;;;;;;;;;5004221;28;20048;-70
2022/12/05 01:30:42;;;;;;;94.55;39.08;;;;;;;;;;5003469;28;20131;-71
2022/12/05 01:33:09;;;;;;;87.95;38.50;;;;;;;;;;5002989;28;20041;-71
2022/12/05 01:35:36;;;;;;;87.00;37.17;;;;;;;;;;5002000;28;20022;-71
2022/12/05 01:38:02;;;;;;;88.65;38.95;;;;;;;;;;4984867;28;20121;-71
2022/12/05 01:40:29;;;;;;;100.85;39.17;;;;;;;;;;5002491;28;20021;-70
2022/12/05 01:42:55;;;;;;;86.97;38.15;;;;;;;;;;5004045;28;20041;-70
2022/12/05 01:45:41;;;;;;;87.45;38.42;;;;;;;;;;5003942;28;20713;-70
2022/12/05 01:48:11;;;;;;;90.85;39.55;;;;;;;;;;5002189;28;20030;-70
2022/12/05 01:50:37;;;;;;;96.63;39.58;;;;;;;;;;5004869;28;20053;-70
2022/12/05 01:53:04;;;;;;;85.65;38.92;;;;;;;;;;5005395;28;20037;-70
2022/12/05 01:55:31;;;;;;;95.38;40.47;;;;;;;;;;5003312;28;20133;-70
2022/12/05 01:57:57;;;;;;;101.78;39.17;;;;;;;;;;4984112;28;20037;-70
2022/12/05 02:00:23;;;;;;;101.15;42.17;;;;;;;;;;5004292;28;20022;-70
2022/12/05 02:02:55;;;;;;;98.90;41.25;;;;;;;;;;5006732;28;20505;-70
2022/12/05 02:05:28;;;;;;;102.47;40.78;;;;;;;;;;5004193;28;20049;-71
2022/12/05 02:07:55;;;;;;;104.68;42.78;;;;;;;;;;5007886;28;20037;-70
2022/12/05 02:10:22;;;;;;;96.43;39.55;;;;;;;;;;5006566;28;20794;-70
2022/12/05 02:12:49;;;;;;;102.43;42.80;;;;;;;;;;5006320;28;20038;-69
2022/12/05 02:15:34;;;;;;;105.75;41.15;;;;;;;;;;5007161;28;20021;-69
2022/12/05 02:18:03;;;;;;;112.05;42.50;;;;;;;;;;5006741;28;20041;-69
2022/12/05 02:20:47;;;;;;;102.63;40.85;;;;;;;;;;5005836;28;20434;-69
2022/12/05 02:23:32;;;;;;;104.53;41.40;;;;;;;;;;5004985;28;20022;-69
2022/12/05 02:26:01;;;;;;;114.30;43.10;;;;;;;;;;5006291;28;20021;-70
2022/12/05 02:28:46;;;;;;;109.25;41.28;;;;;;;;;;5006949;28;20088;-69
2022/12/05 02:31:27;;;;;;;105.35;42.97;;;;;;;;;;5004616;28;20532;-69
2022/12/05 02:34:06;;;;;;;105.60;42.83;;;;;;;;;;5006864;28;20072;-69
2022/12/05 02:36:39;;;;;;;112.25;41.05;;;;;;;;;;5004677;28;20084;-69
2022/12/05 02:39:17;;;;;;;115.75;43.22;;;;;;;;;;5005068;28;20041;-69
2022/12/05 02:41:50;;;;;;;112.53;42.67;;;;;;;;;;5001800;28;20030;-69
2022/12/05 02:44:32;;;;;;;111.13;41.88;;;;;;;;;;5006650;28;20030;-69
2022/12/05 02:46:58;;;;;;;115.28;44.22;;;;;;;;;;5003275;28;20041;-69
2022/12/05 02:49:28;;;;;;;112.40;42.42;;;;;;;;;;5006033;28;20394;-68
2022/12/05 02:51:56;;;;;;;117.93;45.40;;;;;;;;;;5003064;28;20038;-68
2022/12/05 02:54:24;;;;;;;114.20;44.05;;;;;;;;;;5003750;28;20049;-70
2022/12/05 02:56:51;;;;;;;109.97;42.72;;;;;;;;;;5005852;28;20018;-70
2022/12/05 02:59:18;;;;;;;120.35;44.85;;;;;;;;;;5005697;28;20029;-71
2022/12/05 03:01:46;;;;;;;111.38;42.40;;;;;;;;;;5005221;28;20116;-71
2022/12/05 03:04:13;;;;;;;105.15;42.22;;;;;;;;;;5003750;28;20045;-70
2022/12/05 03:06:41;;;;;;;106.13;40.85;;;;;;;;;;5002986;28;20132;-70
2022/12/05 03:09:10;;;;;;;113.25;42.58;;;;;;;;;;5005844;28;20045;-71
2022/12/05 03:11:47;;;;;;;110.55;41.75;;;;;;;;;;5007140;28;20514;-70
2022/12/05 03:14:17;;;;;;;107.53;40.67;;;;;;;;;;5006036;28;20022;-70
2022/12/05 03:16:48;;;;;;;104.10;39.55;;;;;;;;;;5006752;28;20036;-70
2022/12/05 03:19:20;;;;;;;118.32;42.40;;;;;;;;;;5004426;28;20137;-70
2022/12/05 03:21:50;;;;;;;100.22;39.33;;;;;;;;;;5002429;28;20030;-70
2022/12/05 03:24:16;;;;;;;104.93;40.22;;;;;;;;;;5004552;28;20091;-70
2022/12/05 03:26:48;;;;;;;98.97;36.72;;;;;;;;;;5006941;28;20042;-71
2022/12/05 03:29:33;;;;;;;100.63;40.03;;;;;;;;;;5006179;28;20037;-69
2022/12/05 03:32:02;;;;;;;99.38;37.90;;;;;;;;;;5003960;28;20034;-70
2022/12/05 03:34:42;;;;;;;88.45;37.15;;;;;;;;;;5005253;28;20038;-70
2022/12/05 03:37:19;;;;;;;98.63;40.77;;;;;;;;;;5007020;28;20029;-71
2022/12/05 03:39:48;;;;;;;99.50;39.70;;;;;;;;;;5007787;28;20128;-71
2022/12/05 03:42:16;;;;;;;89.63;37.90;;;;;;;;;;5010325;28;20105;-71
2022/12/05 03:44:47;;;;;;;95.85;37.45;;;;;;;;;;5005513;28;20052;-71
2022/12/05 03:47:13;;;;;;;;;;;;;;;;;;5006794;28;20029;-71
2022/12/05 03:49:54;;;;;;;85.07;34.60;;;;;;;;;;4989488;28;19925;-71
2022/12/05 03:52:24;;;;;;;91.00;36.75;;;;;;;;;;5007459;28;20518;-70
2022/12/05 03:54:52;;;;;;;89.10;35.03;;;;;;;;;;5007416;28;20057;-71
2022/12/05 03:57:25;;;;;;;82.90;35.00;;;;;;;;;;5006864;28;20033;-70
2022/12/05 03:59:59;;;;;;;88.35;35.25;;;;;;;;;;5004506;28;20045;-71
2022/12/05 04:02:41;;;;;;;85.72;36.58;;;;;;;;;;5003968;28;20018;-70
2022/12/05 04:05:11;;;;;;;94.78;36.45;;;;;;;;;;5005217;28;20044;-70
2022/12/05 04:07:39;;;;;;;80.85;33.38;;;;;;;;;;5002997;28;20026;-70
2022/12/05 04:10:17;;;;;;;81.13;34.88;;;;;;;;;;5001867;28;20105;-70
2022/12/05 04:12:44;;;;;;;79.88;33.80;;;;;;;;;;4986871;28;21497;-70
2022/12/05 04:15:14;;;;;;;87.07;34.65;;;;;;;;;;5000172;28;20113;-70
2022/12/05 04:17:45;;;;;;;78.70;34.47;;;;;;;;;;5002823;28;20030;-70
2022/12/05 04:23:06;;;;;;;82.05;35.00;;;;;;;;;;5003567;28;20065;-70
2022/12/05 04:25:52;;;;;;;74.80;34.03;;;;;;;;;;5004690;28;20029;-71
2022/12/05 04:28:33;;;;;;;73.47;33.53;;;;;;;;;;5001391;28;20037;-71
2022/12/05 04:31:18;;;;;;;80.65;34.08;;;;;;;;;;5003168;28;20057;-70
2022/12/05 04:33:46;;;;;;;81.45;34.25;;;;;;;;;;5001971;28;20054;-70
2022/12/05 04:36:14;;;;;;;80.13;32.80;;;;;;;;;;5003694;28;20026;-70
2022/12/05 04:38:43;;;;;;;73.60;34.92;;;;;;;;;;5004681;28;20069;-70
2022/12/05 04:41:13;;;;;;;74.10;34.33;;;;;;;;;;5004698;28;20026;-70
2022/12/05 04:43:40;;;;;;;80.20;35.97;;;;;;;;;;5002358;28;20037;-70
2022/12/05 04:46:09;;;;;;;84.88;34.10;;;;;;;;;;5003892;28;20033;-70
2022/12/05 04:48:37;;;;;;;79.13;36.20;;;;;;;;;;5004331;28;20032;-70
2022/12/05 04:51:05;;;;;;;79.82;36.03;;;;;;;;;;4999357;28;20034;-70
2022/12/05 04:53:35;;;;;;;81.68;35.58;;;;;;;;;;5000526;28;20052;-71
2022/12/05 04:56:03;;;;;;;84.45;36.63;;;;;;;;;;5003008;28;20045;-70
2022/12/05 04:58:29;;;;;;;81.90;36.63;;;;;;;;;;5004078;28;20033;-70
2022/12/05 05:00:55;;;;;;;91.75;36.33;;;;;;;;;;5001743;28;20428;-71
2022/12/05 05:03:28;;;;;;;91.45;37.20;;;;;;;;;;5002100;28;20061;-70
2022/12/05 05:05:55;;;;;;;88.60;36.65;;;;;;;;;;4996254;28;20073;-73
2022/12/05 05:08:23;;;;;;;90.22;38.28;;;;;;;;;;5002349;28;20030;-70
2022/12/05 05:11:13;;;;;;;94.15;39.75;;;;;;;;;;5001985;28;20030;-70
2022/12/05 05:13:39;;;;;;;87.07;37.20;;;;;;;;;;4997727;28;20399;-69
2022/12/05 05:16:06;;;;;;;91.20;38.30;;;;;;;;;;5007502;28;20041;-70
2022/12/05 05:18:32;;;;;;;96.60;39.22;;;;;;;;;;5006758;28;20025;-70
2022/12/05 05:20:58;;;;;;;91.45;39.83;;;;;;;;;;5005534;28;20478;-70
2022/12/05 05:23:25;;;;;;;88.65;39.17;;;;;;;;;;5006313;28;20455;-70
2022/12/05 05:25:52;;;;;;;96.25;39.78;;;;;;;;;;5005729;28;20386;-69
2022/12/05 05:28:18;;;;;;;102.57;40.47;;;;;;;;;;5005459;28;20080;-69
2022/12/05 05:30:44;;;;;;;93.43;38.85;;;;;;;;;;5003277;28;20034;-70
2022/12/05 05:33:10;;;;;;;100.15;39.67;;;;;;;;;;5004512;28;20091;-70
2022/12/05 05:35:37;;;;;;;93.78;37.65;;;;;;;;;;5003582;28;20406;-69
2022/12/05 05:38:03;;;;;;;93.53;39.40;;;;;;;;;;5001494;28;20131;-69
2022/12/05 05:40:30;;;;;;;103.88;40.53;;;;;;;;;;5005167;28;20030;-69
2022/12/05 05:42:56;;;;;;;99.35;38.80;;;;;;;;;;4994847;28;20105;-70
2022/12/05 05:45:22;;;;;;;97.03;40.63;;;;;;;;;;5006581;28;20066;-69
2022/12/05 05:47:48;;;;;;;97.70;40.38;;;;;;;;;;5004798;28;20084;-69
2022/12/05 05:50:15;;;;;;;105.85;42.42;;;;;;;;;;5002923;28;20029;-69
2022/12/05 05:52:41;;;;;;;92.80;38.22;;;;;;;;;;5002860;28;20053;-69
2022/12/05 05:55:08;;;;;;;109.15;41.38;;;;;;;;;;5002091;28;20031;-69
2022/12/05 05:57:34;;;;;;;102.13;39.47;;;;;;;;;;5005624;28;20134;-68
2022/12/05 06:00:00;;;;;;;98.88;40.13;;;;;;;;;;5004478;28;20065;-68
2022/12/05 06:02:30;;;;;;;96.88;39.25;;;;;;;;;;5001304;28;20112;-68
2022/12/05 06:04:57;;;;;;;102.80;39.30;;;;;;;;;;5000084;28;20406;-68
2022/12/05 06:07:23;;;;;;;96.93;40.20;;;;;;;;;;5002766;28;20029;-69
2022/12/05 06:09:49;;;;;;;96.85;40.47;;;;;;;;;;5005020;28;20038;-69
2022/12/05 06:12:15;;;;;;;97.53;40.30;;;;;;;;;;5006734;28;21209;-69
2022/12/05 06:14:41;;;;;;;94.80;38.33;;;;;;;;;;5000906;28;20517;-68
2022/12/05 06:17:07;;;;;;;88.15;39.75;;;;;;;;;;5006182;28;20103;-69
2022/12/05 06:19:34;;;;;;;96.72;40.83;;;;;;;;;;5008992;28;20034;-69
2022/12/05 06:22:00;;;;;;;94.55;38.60;;;;;;;;;;5005165;28;20034;-69
2022/12/05 06:24:26;;;;;;;92.13;38.75;;;;;;;;;;5006188;28;20038;-69
2022/12/05 06:26:52;;;;;;;95.13;38.05;;;;;;;;;;5013134;28;20042;-69
2022/12/05 06:29:18;;;;;;;97.43;39.25;;;;;;;;;;5007005;28;20038;-69
2022/12/05 06:31:44;;;;;;;94.18;38.33;;;;;;;;;;5002009;28;20169;-68
2022/12/05 06:34:11;;;;;;;95.10;37.28;;;;;;;;;;5006511;28;20108;-70
2022/12/05 06:36:37;;;;;;;89.10;37.67;;;;;;;;;;5005238;28;20172;-69
2022/12/05 06:39:04;;;;;;;92.10;38.42;;;;;;;;;;5006127;28;20091;-69
2022/12/05 06:41:30;;;;;;;90.68;38.53;;;;;;;;;;5004988;28;20037;-69
2022/12/05 06:43:57;;;;;;;98.43;38.40;;;;;;;;;;4995221;28;20634;-69
2022/12/05 06:46:24;;;;;;;83.90;36.72;;;;;;;;;;5005766;28;20018;-68
2022/12/05 06:48:54;;;;;;;86.82;35.78;;;;;;;;;;4982436;28;20041;-69
2022/12/05 06:51:20;;;;;;;81.30;34.65;;;;;;;;;;5006837;28;20026;-69
2022/12/05 06:53:46;;;;;;;99.20;37.08;;;;;;;;;;5005341;28;20062;-69
2022/12/05 06:56:14;;;;;;;83.88;36.42;;;;;;;;;;5008391;28;20060;-69
2022/12/05 06:58:41;;;;;;;78.70;33.13;;;;;;;;;;5008109;28;20057;-69
2022/12/05 07:03:55;;;;;;;75.60;31.55;;;;;;;;;;5006713;28;20535;-69
2022/12/05 07:06:21;;;;;;;70.03;33.40;;;;;;;;;;5009069;28;21110;-69
2022/12/05 07:08:47;;;;;;;79.05;32.40;;;;;;;;;;4998849;28;20038;-69
2022/12/05 07:11:13;;;;;;;72.28;32.17;;;;;;;;;;5007503;28;20037;-69
2022/12/05 07:13:40;;;;;;;68.90;31.38;;;;;;;;;;5008148;28;20394;-68
2022/12/05 07:16:06;;;;;;;71.03;32.00;;;;;;;;;;5007220;28;20169;-68
2022/12/05 07:18:32;;;;;;;61.90;28.77;;;;;;;;;;5006165;28;20026;-69
2022/12/05 07:21:00;;;;;;;66.55;29.70;;;;;;;;;;4992449;28;20037;-69
2022/12/05 07:23:26;;;;;;;58.60;27.65;;;;;;;;;;5010169;28;20518;-68
2022/12/05 07:25:53;;;;;;;55.45;27.63;;;;;;;;;;5011586;28;20034;-69
2022/12/05 07:28:19;;;;;;;53.60;26.67;;;;;;;;;;5009787;28;20030;-68
2022/12/05 07:30:45;;;;;;;56.00;26.75;;;;;;;;;;5011347;28;20041;-69
2022/12/05 07:33:12;;;;;;;55.10;26.23;;;;;;;;;;5007383;28;20037;-68
2022/12/05 07:35:38;;;;;;;53.05;26.58;;;;;;;;;;5009730;28;20045;-68
2022/12/05 07:38:04;;;;;;;59.80;27.40;;;;;;;;;;5009809;28;20056;-68
2022/12/05 07:40:30;;;;;;;48.17;24.23;;;;;;;;;;4993473;28;20466;-68
2022/12/05 07:42:56;;;;;;;51.88;26.63;;;;;;;;;;5012466;28;20376;-68
2022/12/05 07:45:23;;;;;;;50.33;26.90;;;;;;;;;;5008384;28;20044;-68
2022/12/05 07:47:49;;;;;;;52.05;27.05;;;;;;;;;;5009854;28;20054;-68
2022/12/05 07:50:15;;;;;;;48.22;25.42;;;;;;;;;;5008521;28;20077;-68
2022/12/05 07:52:41;;;;;;;50.22;25.52;;;;;;;;;;5007333;28;20061;-68
2022/12/05 07:55:07;;;;;;;46.22;25.73;;;;;;;;;;4995407;28;20107;-68
2022/12/05 07:57:34;;;;;;;44.30;25.05;;;;;;;;;;5009003;28;20113;-68
2022/12/05 08:00:00;;;;;;;44.22;24.85;;;;;;;;;;5005712;28;20033;-69
2022/12/05 08:02:26;;;;;;;49.38;26.33;;;;;;;;;;5006984;28;20477;-68
2022/12/05 08:04:52;;;;;;;43.63;25.33;;;;;;;;;;4990498;28;20034;-68
2022/12/05 08:07:18;;;;;;;41.92;24.45;;;;;;;;;;4990629;28;20085;-68
2022/12/05 08:09:44;;;;;;;43.42;24.52;;;;;;;;;;5007335;28;20508;-68
2022/12/05 08:12:11;;;;;;;39.33;23.52;;;;;;;;;;5010740;28;20045;-68
2022/12/05 08:14:37;;;;;;;45.08;23.00;;;;;;;;;;4992601;28;20081;-68
2022/12/05 08:17:03;;;;;;;41.33;22.70;;;;;;;;;;5008512;28;20067;-69
2022/12/05 08:19:30;;;;;;;47.13;26.05;;;;;;;;;;5010692;28;20325;-68
2022/12/05 08:21:56;;;;;;;43.53;24.98;;;;;;;;;;5009224;28;20034;-69
2022/12/05 08:24:23;;;;;;;42.58;24.42;;;;;;;;;;4993459;28;20041;-69
2022/12/05 08:26:50;;;;;;;42.50;24.63;;;;;;;;;;5007994;28;20416;-69
2022/12/05 08:29:16;;;;;;;39.67;23.23;;;;;;;;;;5009462;28;20041;-69
2022/12/05 08:31:43;;;;;;;39.15;22.92;;;;;;;;;;5011141;28;20041;-69
2022/12/05 08:34:11;;;;;;;39.55;23.60;;;;;;;;;;5010410;28;20076;-70
2022/12/05 08:36:38;;;;;;;37.92;22.25;;;;;;;;;;5010439;28;20180;-69
2022/12/05 08:39:05;;;;;;;37.80;22.05;;;;;;;;;;5010542;28;20045;-69
2022/12/05 08:41:32;;;;;;;35.95;21.55;;;;;;;;;;5010800;28;20038;-67
2022/12/05 08:44:01;;;;;;;36.17;20.73;;;;;;;;;;4989708;28;20092;-69
2022/12/05 08:46:28;;;;;;;35.85;20.50;;;;;;;;;;5007578;28;20022;-69
2022/12/05 08:48:54;;;;;;;33.38;19.80;;;;;;;;;;5010176;28;20033;-69
2022/12/05 08:51:20;;;;;;;35.92;20.88;;;;;;;;;;4992053;28;20029;-69
2022/12/05 08:53:47;;;;;;;29.65;18.23;;;;;;;;;;5015679;28;20507;-70
2022/12/05 08:56:13;;;;;;;30.67;18.48;;;;;;;;;;5009588;28;20057;-69
2022/12/05 08:58:40;;;;;;;26.13;17.15;;;;;;;;;;5008068;28;20084;-69
2022/12/05 09:01:10;;;;;;;28.45;17.95;;;;;;;;;;5007834;28;20036;-67
2022/12/05 09:03:37;;;;;;;26.83;17.95;;;;;;;;;;5009924;28;20177;-70
2022/12/05 09:06:12;;;;;;;27.92;18.23;;;;;;;;;;5010480;28;20030;-67
2022/12/05 09:08:39;;;;;;;28.95;17.80;;;;;;;;;;5009604;28;20021;-68
2022/12/05 09:11:06;;;;;;;25.77;16.42;;;;;;;;;;5010909;28;20033;-69
2022/12/05 09:13:33;;;;;;;22.20;15.52;;;;;;;;;;5007357;28;20032;-69
2022/12/05 09:15:59;;;;;;;24.80;14.82;;;;;;;;;;5009804;28;20294;-70
2022/12/05 09:18:25;;;;;;;23.75;15.27;;;;;;;;;;4989235;28;20033;-67
2022/12/05 09:20:51;;;;;;;22.83;15.07;;;;;;;;;;5009285;28;20034;-69
2022/12/05 09:23:17;;;;;;;24.52;14.73;;;;;;;;;;5009140;28;20041;-68
2022/12/05 09:25:43;;;;;;;24.77;14.75;;;;;;;;;;4992271;28;20120;-69
2022/12/05 09:28:10;;;;;;;26.02;15.70;;;;;;;;;;4992241;28;20164;-70
2022/12/05 09:30:36;;;;;;;23.90;15.18;;;;;;;;;;5006412;28;20034;-69
2022/12/05 09:33:02;;;;;;;23.60;15.50;;;;;;;;;;5009459;28;20029;-68
2022/12/05 09:35:28;;;;;;;24.55;15.40;;;;;;;;;;5007887;28;20099;-70
2022/12/05 09:37:55;;;;;;;23.08;14.43;;;;;;;;;;5008501;28;20120;-68
2022/12/05 09:40:22;;;;;;;24.45;15.07;;;;;;;;;;5009272;28;20464;-69
2022/12/05 09:43:07;;;;;;;23.13;15.20;;;;;;;;;;5007784;28;20037;-69
2022/12/05 09:45:36;;;;;;;22.40;14.90;;;;;;;;;;5000926;28;20018;-69
2022/12/05 09:48:06;;;;;;;21.25;14.38;;;;;;;;;;5009439;28;20026;-69
2022/12/05 09:50:41;;;;;;;20.92;14.43;;;;;;;;;;5005498;28;20136;-69
2022/12/05 09:53:23;;;;;;;22.67;15.50;;;;;;;;;;5018666;28;20497;-69
2022/12/05 09:55:54;;;;;;;23.65;14.73;;;;;;;;;;5012534;28;20034;-69
2022/12/05 09:58:29;;;;;;;19.58;14.15;;;;;;;;;;5009117;28;20065;-70
2022/12/05 10:01:00;;;;;;;18.88;13.52;;;;;;;;;;5007167;28;21392;-69
2022/12/05 10:03:26;;;;;;;;;;;;;;;;;;5005605;28;20502;-67
2022/12/05 10:06:08;;;;;;;18.48;12.63;;;;;;;;;;5006878;28;19914;-69
2022/12/05 10:09:00;;;;;;;18.60;11.95;;;;;;;;;;5006247;28;20037;-70
2022/12/05 10:11:26;;;;;;;18.55;11.93;;;;;;;;;;4978980;28;20104;-69
2022/12/05 10:13:57;;;;;;;15.02;10.98;;;;;;;;;;5009584;28;20037;-70
2022/12/05 10:16:30;;;;;;;17.58;10.27;;;;;;;;;;5008684;28;20035;-70
2022/12/05 10:19:03;;;;;;;16.83;11.23;;;;;;;;;;5006975;28;20037;-70
2022/12/05 10:21:36;;;;;;;14.82;10.80;;;;;;;;;;4988801;28;20072;-68
2022/12/05 10:24:04;;;;;;;16.25;10.60;;;;;;;;;;5008146;28;20513;-68
2022/12/05 10:26:51;;;;;;;18.38;10.73;;;;;;;;;;5011633;28;20383;-68
2022/12/05 10:29:17;;;;;;;15.13;9.60;;;;;;;;;;5010382;28;20026;-68
2022/12/05 10:31:46;;;;;;;13.95;9.70;;;;;;;;;;5011004;28;20113;-69
2022/12/05 10:34:33;;;;;;;15.73;10.23;;;;;;;;;;5012007;28;20060;-70
2022/12/05 10:37:09;;;;;;;15.43;10.40;;;;;;;;;;5005836;28;20026;-69
2022/12/05 10:39:35;;;;;;;15.02;10.50;;;;;;;;;;5010265;28;20037;-69
2022/12/05 10:42:02;;;;;;;13.48;9.38;;;;;;;;;;5009251;28;20044;-69
2022/12/05 10:44:28;;;;;;;14.80;9.60;;;;;;;;;;5009523;28;20033;-68
2022/12/05 10:46:55;;;;;;;14.30;9.82;;;;;;;;;;5007159;28;20491;-70
2022/12/05 10:49:22;;;;;;;13.18;8.93;;;;;;;;;;5008637;28;20112;-69
2022/12/05 10:51:48;;;;;;;15.73;8.88;;;;;;;;;;5012136;28;20061;-70
2022/12/05 10:54:17;;;;;;;15.02;9.85;;;;;;;;;;5012929;28;20050;-70
2022/12/05 10:56:45;;;;;;;12.98;8.63;;;;;;;;;;4992811;28;20045;-70
2022/12/05 10:59:16;;;;;;;12.60;8.95;;;;;;;;;;5006914;28;20033;-70
2022/12/05 11:01:47;;;;;;;12.15;8.20;;;;;;;;;;5006398;28;20033;-70
2022/12/05 11:04:13;;;;;;;;;;;;;;;;;;5008028;28;20022;-67
2022/12/05 11:06:48;;;;;;;13.45;8.77;;;;;;;;;;5009415;28;19916;-70
2022/12/05 11:09:17;;;;;;;12.88;9.35;;;;;;;;;;5006369;28;20083;-70
2022/12/05 11:11:56;;;;;;;15.07;9.70;;;;;;;;;;5006477;28;20135;-70
2022/12/05 11:14:24;;;;;;;14.38;9.18;;;;;;;;;;5013869;28;20065;-69
2022/12/05 11:16:54;;;;;;;15.07;9.65;;;;;;;;;;5011067;28;20026;-70
2022/12/05 11:19:21;;;;;;;13.13;9.70;;;;;;;;;;5010338;28;20030;-70
2022/12/05 11:21:47;;;;;;;16.02;9.63;;;;;;;;;;5009117;28;20285;-69
2022/12/05 11:24:23;;;;;;;16.33;10.68;;;;;;;;;;5007092;28;20140;-70
2022/12/05 11:26:49;;;;;;;16.45;10.48;;;;;;;;;;5008588;28;20037;-69
2022/12/05 11:29:35;;;;;;;18.42;10.73;;;;;;;;;;5008222;28;20026;-69
2022/12/05 11:32:06;;;;;;;18.92;10.68;;;;;;;;;;5009041;28;20088;-70
2022/12/05 11:34:41;;;;;;;12.38;8.52;;;;;;;;;;5011091;28;20487;-70
2022/12/05 11:37:12;;;;;;;18.88;11.35;;;;;;;;;;5010239;28;20463;-69
2022/12/05 11:39:39;;;;;;;17.40;11.00;;;;;;;;;;5008699;28;20133;-69
2022/12/05 11:42:15;;;;;;;19.15;12.05;;;;;;;;;;5010495;28;20030;-69
2022/12/05 11:45:02;;;;;;;20.40;12.25;;;;;;;;;;5008329;28;20034;-69
2022/12/05 11:47:46;;;;;;;16.42;10.57;;;;;;;;;;5009856;28;20121;-69
2022/12/05 11:50:16;;;;;;;20.77;10.57;;;;;;;;;;5008329;28;20076;-69
2022/12/05 11:53:01;;;;;;;20.58;9.57;;;;;;;;;;5008585;28;20065;-69
2022/12/05 11:55:42;;;;;;;17.00;9.27;;;;;;;;;;4994176;28;20081;-69
2022/12/05 11:58:27;;;;;;;17.95;9.05;;;;;;;;;;5003753;28;21051;-69
2022/12/05 12:01:02;;;;;;;16.45;9.77;;;;;;;;;;5006295;28;20087;-69
2022/12/05 12:03:37;;;;;;;17.15;9.25;;;;;;;;;;5006212;28;20037;-69
2022/12/05 12:06:26;;;;;;;18.45;9.40;;;;;;;;;;5009569;28;20026;-69
2022/12/05 12:08:58;;;;;;;17.45;9.40;;;;;;;;;;4978685;28;20492;-69
2022/12/05 12:11:24;;;;;;;18.67;10.00;;;;;;;;;;5004790;28;20489;-69
2022/12/05 12:14:09;;;;;;;18.35;9.45;;;;;;;;;;5009767;28;20088;-69
2022/12/05 12:16:42;;;;;;;19.42;10.55;;;;;;;;;;5007987;28;20030;-69
2022/12/05 12:19:19;;;;;;;21.15;11.02;;;;;;;;;;5007150;28;20037;-69
2022/12/05 12:21:50;;;;;;;18.23;10.18;;;;;;;;;;5008888;28;20030;-69
2022/12/05 12:24:37;;;;;;;17.38;10.35;;;;;;;;;;5006494;28;20538;-69
2022/12/05 12:27:06;;;;;;;21.48;11.23;;;;;;;;;;5000478;28;20045;-68
2022/12/05 12:29:38;;;;;;;18.30;9.63;;;;;;;;;;5008613;28;20026;-68
2022/12/05 12:32:23;;;;;;;18.67;9.75;;;;;;;;;;5006130;28;20033;-69
2022/12/05 12:34:58;;;;;;;15.27;8.95;;;;;;;;;;5007936;28;20387;-69
2022/12/05 12:37:30;;;;;;;17.90;9.68;;;;;;;;;;5007238;28;20029;-69
2022/12/05 12:40:03;;;;;;;16.05;9.27;;;;;;;;;;5006233;28;20030;-69
2022/12/05 12:42:45;;;;;;;16.85;8.80;;;;;;;;;;4989578;28;20018;-69
2022/12/05 12:45:30;;;;;;;14.43;8.68;;;;;;;;;;4988654;28;20022;-68
2022/12/05 12:47:59;;;;;;;14.50;9.00;;;;;;;;;;5010173;28;20026;-69
2022/12/05 12:50:28;;;;;;;20.05;8.35;;;;;;;;;;5008558;28;20109;-69
2022/12/05 12:53:23;;;;;;;13.50;8.95;;;;;;;;;;5009622;28;20029;-70
2022/12/05 12:56:22;;;;;;;15.77;9.10;;;;;;;;;;5004094;28;20474;-70
2022/12/05 12:59:04;;;;;;;14.80;8.50;;;;;;;;;;4985735;28;20076;-70
2022/12/05 13:01:35;;;;;;;15.77;9.05;;;;;;;;;;5008141;28;20033;-70
2022/12/05 13:04:01;;;;;;;;;;;;;;;;;;5009253;28;20044;-67
2022/12/05 13:06:34;;;;;;;18.70;10.40;;;;;;;;;;5008941;28;20004;-69
2022/12/05 13:09:06;;;;;;;22.27;11.50;;;;;;;;;;5003858;28;20048;-69
2022/12/05 13:11:35;;;;;;;20.35;11.95;;;;;;;;;;5007966;28;20108;-69
2022/12/05 13:14:01;;;;;;;22.55;12.02;;;;;;;;;;5005272;28;20040;-69
2022/12/05 13:16:34;;;;;;;23.70;13.60;;;;;;;;;;4989427;28;20050;-69
2022/12/05 13:19:02;;;;;;;28.10;13.25;;;;;;;;;;5006751;28;20092;-69
2022/12/05 13:21:28;;;;;;;24.25;13.38;;;;;;;;;;5008423;28;20033;-70
2022/12/05 13:23:58;;;;;;;23.80;13.02;;;;;;;;;;5006668;28;20110;-69
2022/12/05 13:26:24;;;;;;;25.17;13.80;;;;;;;;;;5005965;28;20103;-69
2022/12/05 13:28:52;;;;;;;26.00;13.88;;;;;;;;;;4991125;28;20506;-69
2022/12/05 13:31:19;;;;;;;28.00;15.15;;;;;;;;;;5007517;28;20057;-69
2022/12/05 13:33:47;;;;;;;26.45;13.38;;;;;;;;;;4988406;28;20038;-69
2022/12/05 13:42:14;;;;;;;22.75;12.88;;;;;;;;;;5002435;28;20036;-70
2022/12/05 13:44:45;;;;;;;29.50;13.48;;;;;;;;;;5008899;28;20034;-68
2022/12/05 13:47:11;;;;;;;;;;;;;;;;;;5007573;28;20459;-68
2022/12/05 13:49:49;;;;;;;24.02;12.30;;;;;;;;;;5021515;28;19913;-70
2022/12/05 13:52:23;;;;;;;21.00;11.80;;;;;;;;;;5000289;28;20030;-70
2022/12/05 13:55:02;;;;;;;24.02;11.85;;;;;;;;;;5010831;28;20128;-69
2022/12/05 13:57:38;;;;;;;25.52;13.48;;;;;;;;;;5012555;28;20034;-69
2022/12/05 14:00:21;;;;;;;26.88;14.35;;;;;;;;;;5004335;28;20088;-67
2022/12/05 14:02:50;;;;;;;27.77;14.25;;;;;;;;;;5011197;28;20025;-69
2022/12/05 14:05:16;;;;;;;25.88;14.93;;;;;;;;;;5009411;28;20690;-68
2022/12/05 14:07:46;;;;;;;23.90;12.68;;;;;;;;;;5011508;28;20702;-68
2022/12/05 14:10:15;;;;;;;25.13;13.93;;;;;;;;;;5005788;28;20048;-68
2022/12/05 14:12:51;;;;;;;23.50;12.13;;;;;;;;;;5008941;28;20042;-68
2022/12/05 14:15:24;;;;;;;24.83;12.88;;;;;;;;;;5008356;28;20070;-68
2022/12/05 14:17:55;;;;;;;23.83;11.65;;;;;;;;;;5007129;28;20033;-68
2022/12/05 14:20:40;;;;;;;22.55;12.63;;;;;;;;;;5007768;28;20125;-68
2022/12/05 14:23:35;;;;;;;31.48;13.43;;;;;;;;;;5006698;28;20014;-68
2022/12/05 14:26:02;;;;;;;23.10;13.73;;;;;;;;;;4949373;28;20040;-68
2022/12/05 14:28:46;;;;;;;29.45;14.35;;;;;;;;;;5002924;28;20398;-69
2022/12/05 14:31:12;;;;;;;25.42;12.75;;;;;;;;;;5010485;28;20372;-69
2022/12/05 14:33:38;;;;;;;24.17;13.88;;;;;;;;;;5006558;28;20115;-69
2022/12/05 14:36:13;;;;;;;27.73;14.35;;;;;;;;;;5009263;28;20033;-68
2022/12/05 14:38:39;;;;;;;31.25;14.77;;;;;;;;;;5010597;28;20034;-68
2022/12/05 14:41:13;;;;;;;30.92;14.95;;;;;;;;;;5010778;28;20141;-69
2022/12/05 14:43:41;;;;;;;27.90;14.05;;;;;;;;;;5009306;28;20113;-68
2022/12/05 14:46:14;;;;;;;31.00;14.20;;;;;;;;;;5008654;28;20059;-67
2022/12/05 14:48:45;;;;;;;25.63;14.48;;;;;;;;;;5005945;28;20436;-69